Terminal Aerodrome Forecast
Issued by NWS

Home | Current Version | Previous Version | Text Only | Print | Product List | Glossary On
Versions: 1 2 3 4 5 6 7 8 9 10 11 12 13 14 15
000
FTUS42 TJSJ 181127 AAA
TAFKPK
TAF AMD
TKPK 181127Z 1811/1912 06017KT P6SM FEW020
      AMD NOT SKED 1902/1911=

USA.gov is the U.S. government's official web portal to all federal, state and local government web resources and services.